createdAt,value
2018-02-24T00:01:42.556Z,-0.10
2018-02-24T00:04:10.854Z,-0.20
2018-02-24T00:06:39.130Z,-0.20
2018-02-24T00:09:07.438Z,-0.20
2018-02-24T00:11:35.002Z,-0.20
2018-02-24T00:14:02.510Z,-0.30
2018-02-24T00:16:30.035Z,-0.30
2018-02-24T00:18:57.557Z,-0.30
2018-02-24T00:21:25.963Z,-0.40
2018-02-24T00:23:53.481Z,-0.40
2018-02-24T00:26:21.001Z,-0.40
2018-02-24T00:28:48.529Z,-0.40
2018-02-24T00:31:16.088Z,-0.50
2018-02-24T00:33:43.607Z,-0.50
2018-02-24T00:36:11.126Z,-0.50
2018-02-24T00:38:38.627Z,-0.50
2018-02-24T00:41:06.249Z,-0.60
2018-02-24T00:43:33.890Z,-0.60
2018-02-24T00:46:01.419Z,-0.60
2018-02-24T00:48:29.694Z,-0.70
2018-02-24T00:50:58.982Z,-0.70
2018-02-24T00:53:26.566Z,-0.80
2018-02-24T00:55:54.841Z,-0.80
2018-02-24T00:58:23.119Z,-0.80
2018-02-24T01:00:51.397Z,-0.80
2018-02-24T01:03:19.687Z,-0.80
2018-02-24T01:05:47.217Z,-0.90
2018-02-24T01:08:14.735Z,-0.80
2018-02-24T01:10:42.255Z,-0.90
2018-02-24T01:13:10.539Z,-0.90
2018-02-24T01:15:38.066Z,-0.90
2018-02-24T01:18:05.608Z,-1.00
2018-02-24T01:20:33.118Z,-1.00
2018-02-24T01:23:00.646Z,-1.00
2018-02-24T01:25:28.150Z,-1.00
2018-02-24T01:27:55.683Z,-1.00
2018-02-24T01:30:23.958Z,-1.10
2018-02-24T01:32:52.232Z,-1.10
2018-02-24T01:35:20.526Z,-1.10
2018-02-24T01:37:48.054Z,-1.10
2018-02-24T01:40:15.576Z,-1.10
2018-02-24T01:42:43.086Z,-1.20
2018-02-24T01:45:11.367Z,-1.20
2018-02-24T01:47:39.646Z,-1.20
2018-02-24T01:50:07.925Z,-1.30
2018-02-24T01:52:36.200Z,-1.20
2018-02-24T01:55:04.487Z,-1.20
2018-02-24T01:57:32.014Z,-1.30
2018-02-24T01:59:59.529Z,-1.20
2018-02-24T02:02:28.113Z,-1.30
2018-02-24T02:04:55.633Z,-1.30
2018-02-24T02:07:23.912Z,-1.30
2018-02-24T02:09:52.202Z,-1.30
2018-02-24T02:12:20.646Z,-1.40
2018-02-24T02:14:48.176Z,-1.30
2018-02-24T02:17:15.686Z,-1.40
2018-02-24T02:19:43.970Z,-1.40
2018-02-24T02:22:12.260Z,-1.30
2018-02-24T02:24:39.767Z,-1.40
2018-02-24T02:27:07.282Z,-1.30
2018-02-24T02:29:34.797Z,-1.30
2018-02-24T02:32:02.323Z,-1.30
2018-02-24T02:34:29.826Z,-1.30
2018-02-24T02:36:58.122Z,-1.40
2018-02-24T02:39:26.393Z,-1.40
2018-02-24T02:41:54.696Z,-1.40
2018-02-24T02:44:22.219Z,-1.40
2018-02-24T02:46:50.507Z,-1.40
2018-02-24T02:49:18.777Z,-1.40
2018-02-24T02:51:47.071Z,-1.40
2018-02-24T02:54:14.595Z,-1.40
2018-02-24T02:56:42.114Z,-1.40
2018-02-24T02:59:10.660Z,-1.40
2018-02-24T03:01:38.933Z,-1.50
2018-02-24T03:04:07.225Z,-1.50
2018-02-24T03:06:34.759Z,-1.60
2018-02-24T03:09:04.077Z,-1.60
2018-02-24T03:11:31.602Z,-1.60
2018-02-24T03:13:59.125Z,-1.60
2018-02-24T03:16:26.631Z,-1.60
2018-02-24T03:18:54.148Z,-1.50
2018-02-24T03:21:22.673Z,-1.60
2018-02-24T03:23:50.194Z,-1.50
2018-02-24T03:26:17.731Z,-1.50
2018-02-24T03:28:45.270Z,-1.60
2018-02-24T03:31:13.546Z,-1.60
2018-02-24T03:33:41.835Z,-1.60
2018-02-24T03:36:09.366Z,-1.60
2018-02-24T03:38:36.890Z,-1.60
2018-02-24T03:41:04.405Z,-1.60
2018-02-24T03:43:32.682Z,-1.60
2018-02-24T03:46:01.557Z,-1.60
2018-02-24T03:48:29.834Z,-1.60
2018-02-24T03:50:58.126Z,-1.50
2018-02-24T03:53:26.404Z,-1.60
2018-02-24T03:55:54.698Z,-1.60
2018-02-24T03:58:22.215Z,-1.60
2018-02-24T04:00:49.744Z,-1.60
2018-02-24T04:03:17.254Z,-1.60
2018-02-24T04:05:45.550Z,-1.60
2018-02-24T04:08:13.070Z,-1.60
2018-02-24T04:10:40.595Z,-1.50
2018-02-24T04:13:08.106Z,-1.50
2018-02-24T04:15:35.647Z,-1.60
2018-02-24T04:18:03.170Z,-1.60
2018-02-24T04:20:30.678Z,-1.60
2018-02-24T04:22:58.977Z,-1.60
2018-02-24T04:25:26.500Z,-1.60
2018-02-24T04:27:54.022Z,-1.60
2018-02-24T04:30:21.539Z,-1.60
2018-02-24T04:32:49.847Z,-1.60
2018-02-24T04:35:17.357Z,-1.60
2018-02-24T04:37:44.888Z,-1.60
2018-02-24T04:40:12.402Z,-1.60
2018-02-24T04:42:39.992Z,-1.60
2018-02-24T04:45:07.514Z,-1.60
2018-02-24T04:47:35.790Z,-1.60
2018-02-24T04:50:04.069Z,-1.60
2018-02-24T04:52:32.350Z,-1.60
2018-02-24T04:55:00.638Z,-1.60
2018-02-24T04:57:28.161Z,-1.60
2018-02-24T04:59:56.462Z,-1.60
2018-02-24T05:02:24.734Z,-1.60
2018-02-24T05:04:52.290Z,-1.60
2018-02-24T05:07:20.570Z,-1.60
2018-02-24T05:09:48.861Z,-1.60
2018-02-24T05:12:16.392Z,-1.60
2018-02-24T05:14:44.701Z,-1.60
2018-02-24T05:17:12.211Z,-1.60
2018-02-24T05:19:39.748Z,-1.60
2018-02-24T05:22:07.257Z,-1.60
2018-02-24T05:24:35.538Z,-1.60
2018-02-24T05:27:03.805Z,-1.60
2018-02-24T05:29:32.105Z,-1.70
2018-02-24T05:31:59.631Z,-1.70
2018-02-24T05:34:27.140Z,-1.60
2018-02-24T05:36:54.678Z,-1.60
2018-02-24T05:39:22.276Z,-1.60
2018-02-24T05:41:49.805Z,-1.60
2018-02-24T05:44:17.332Z,-1.60
2018-02-24T05:46:44.887Z,-1.70
2018-02-24T05:49:12.396Z,-1.60
2018-02-24T05:51:39.936Z,-1.60
2018-02-24T05:54:08.210Z,-1.60
2018-02-24T05:56:36.521Z,-1.70
2018-02-24T05:59:05.038Z,-1.70
2018-02-24T06:01:32.578Z,-1.60
2018-02-24T06:04:00.086Z,-1.60
2018-02-24T06:06:28.369Z,-1.70
2018-02-24T06:08:55.913Z,-1.70
2018-02-24T06:11:24.200Z,-1.70
2018-02-24T06:13:52.503Z,-1.70
2018-02-24T06:16:20.030Z,-1.70
2018-02-24T06:18:48.331Z,-1.70
2018-02-24T06:21:15.860Z,-1.70
2018-02-24T06:23:44.154Z,-1.70
2018-02-24T06:26:12.436Z,-1.70
2018-02-24T06:28:39.982Z,-1.80
2018-02-24T06:31:08.275Z,-1.70
2018-02-24T06:33:35.819Z,-1.70
2018-02-24T06:36:04.094Z,-1.70
2018-02-24T06:38:32.408Z,-1.70
2018-02-24T06:40:59.936Z,-1.70
2018-02-24T06:43:28.205Z,-1.70
2018-02-24T06:45:56.498Z,-1.70
2018-02-24T06:48:24.038Z,-1.70
2018-02-24T06:50:51.577Z,-1.60
2018-02-24T06:53:19.084Z,-1.60
2018-02-24T06:55:46.616Z,-1.60
2018-02-24T06:58:15.905Z,-1.50
2018-02-24T07:00:43.499Z,-1.50
2018-02-24T07:03:11.765Z,-1.50
2018-02-24T07:05:40.055Z,-1.50
2018-02-24T07:08:07.590Z,-1.50
2018-02-24T07:10:35.874Z,-1.50
2018-02-24T07:13:04.158Z,-1.40
2018-02-24T07:15:31.709Z,-1.40
2018-02-24T07:17:59.989Z,-1.40
2018-02-24T07:20:28.298Z,-1.40
2018-02-24T07:22:55.818Z,-1.40
2018-02-24T07:25:24.086Z,-1.20
2018-02-24T07:27:51.649Z,-1.30
2018-02-24T07:30:19.154Z,-1.20
2018-02-24T07:32:46.708Z,-1.10
2018-02-24T07:35:14.263Z,-1.00
2018-02-24T07:37:41.834Z,-1.00
2018-02-24T07:40:09.369Z,-1.00
2018-02-24T07:42:38.446Z,-0.80
2018-02-24T07:45:06.735Z,-0.80
2018-02-24T07:47:35.047Z,-0.70
2018-02-24T07:50:02.547Z,-0.80
2018-02-24T07:52:30.825Z,-0.60
2018-02-24T07:54:58.325Z,-0.70
2018-02-24T07:57:25.882Z,-0.50
2018-02-24T07:59:53.394Z,-0.40
2018-02-24T08:02:20.930Z,-0.40
2018-02-24T08:04:48.432Z,-0.40
2018-02-24T08:07:16.714Z,-0.20
2018-02-24T08:09:44.277Z,-0.20
2018-02-24T08:12:12.548Z,-0.10
2018-02-24T08:14:40.844Z,0.00
2018-02-24T08:17:08.375Z,-0.10
2018-02-24T08:19:36.675Z,0.20
2018-02-24T08:22:04.934Z,0.30
2018-02-24T08:24:33.222Z,0.40
2018-02-24T08:27:01.482Z,0.50
2018-02-24T08:29:30.504Z,0.60
2018-02-24T08:31:58.806Z,0.60
2018-02-24T08:34:26.314Z,0.60
2018-02-24T08:36:53.824Z,0.70
2018-02-24T08:39:21.389Z,0.90
2018-02-24T08:41:48.879Z,0.90
2018-02-24T08:44:16.371Z,1.00
2018-02-24T08:46:44.649Z,1.30
2018-02-24T08:49:12.910Z,1.40
2018-02-24T08:51:41.187Z,1.70
2018-02-24T08:54:09.446Z,2.00
2018-02-24T08:56:36.961Z,1.90
2018-02-24T08:59:04.464Z,1.90
2018-02-24T09:01:33.478Z,2.10
2018-02-24T09:04:01.738Z,2.20
2018-02-24T09:06:30.014Z,2.20
2018-02-24T09:08:59.061Z,2.30
2018-02-24T09:11:27.314Z,2.40
2018-02-24T09:13:55.577Z,2.50
2018-02-24T09:16:23.856Z,2.60
2018-02-24T09:18:52.113Z,2.60
2018-02-24T09:21:19.627Z,2.60
2018-02-24T09:23:48.171Z,2.50
2018-02-24T09:26:16.440Z,2.70
2018-02-24T09:28:43.956Z,2.70
2018-02-24T09:31:11.462Z,2.90
2018-02-24T09:33:39.047Z,2.90
2018-02-24T09:36:06.554Z,3.00
2018-02-24T09:38:34.077Z,3.10
2018-02-24T09:41:01.582Z,3.20
2018-02-24T09:43:29.087Z,3.20
2018-02-24T09:45:56.593Z,3.10
2018-02-24T09:48:24.112Z,3.20
2018-02-24T09:50:51.608Z,3.40
2018-02-24T09:53:19.117Z,3.50
2018-02-24T09:55:46.627Z,3.50
2018-02-24T09:58:14.118Z,3.60
2018-02-24T10:00:42.394Z,3.70
2018-02-24T10:03:10.646Z,3.60
2018-02-24T10:05:38.153Z,3.60
2018-02-24T10:08:05.720Z,3.80
2018-02-24T10:10:33.350Z,3.80
2018-02-24T10:13:01.770Z,3.80
2018-02-24T10:15:29.339Z,3.70
2018-02-24T10:17:56.854Z,3.80
2018-02-24T10:20:25.234Z,4.20
2018-02-24T10:22:53.582Z,4.10
2018-02-24T10:25:23.544Z,4.00
2018-02-24T10:27:51.051Z,4.00
2018-02-24T10:30:18.662Z,4.00
2018-02-24T10:32:46.169Z,4.10
2018-02-24T10:35:13.706Z,4.30
2018-02-24T10:37:42.218Z,4.20
2018-02-24T10:40:09.726Z,4.30
2018-02-24T10:42:37.263Z,4.50
2018-02-24T10:45:05.534Z,4.60
2018-02-24T10:47:33.810Z,4.70
2018-02-24T10:50:02.075Z,4.90
2018-02-24T10:52:29.608Z,4.80
2018-02-24T10:54:57.107Z,4.90
2018-02-24T10:57:25.427Z,4.90
2018-02-24T10:59:52.921Z,4.90
2018-02-24T11:02:20.443Z,4.80
2018-02-24T11:04:48.071Z,4.90
2018-02-24T11:07:16.385Z,4.90
2018-02-24T11:09:44.018Z,4.90
2018-02-24T11:12:11.531Z,5.10
2018-02-24T11:14:39.091Z,5.10
2018-02-24T11:17:06.604Z,5.00
2018-02-24T11:19:34.205Z,5.10
2018-02-24T11:22:01.848Z,5.30
2018-02-24T11:24:30.235Z,5.40
2018-02-24T11:26:57.814Z,5.50
2018-02-24T11:29:25.705Z,5.50
2018-02-24T11:31:53.983Z,5.30
2018-02-24T11:34:22.323Z,5.20
2018-02-24T11:36:50.245Z,5.20
2018-02-24T11:39:18.530Z,5.00
2018-02-24T11:41:46.046Z,5.00
2018-02-24T11:44:13.546Z,5.10
2018-02-24T11:46:41.914Z,5.20
2018-02-24T11:49:10.267Z,5.20
2018-02-24T11:51:38.579Z,5.20
2018-02-24T11:54:06.830Z,5.30
2018-02-24T11:56:34.341Z,5.30
2018-02-24T11:59:01.887Z,5.50
2018-02-24T12:01:30.281Z,5.50
2018-02-24T12:03:59.425Z,5.50
2018-02-24T12:06:27.739Z,5.70
2018-02-24T12:08:55.295Z,5.60
2018-02-24T12:11:23.673Z,5.80
2018-02-24T12:13:51.298Z,5.70
2018-02-24T12:16:18.794Z,5.80
2018-02-24T12:18:46.318Z,5.80
2018-02-24T12:21:13.869Z,6.10
2018-02-24T12:23:42.623Z,6.10
2018-02-24T12:26:10.252Z,6.20
2018-02-24T12:28:38.600Z,6.30
2018-02-24T12:31:06.150Z,6.20
2018-02-24T12:33:33.701Z,6.00
2018-02-24T12:36:01.858Z,6.20
2018-02-24T12:38:30.254Z,6.10
2018-02-24T12:40:57.746Z,6.20
2018-02-24T12:43:25.367Z,6.30
2018-02-24T12:45:53.110Z,6.30
2018-02-24T12:48:20.618Z,6.30
2018-02-24T12:50:48.118Z,6.40
2018-02-24T12:53:15.622Z,6.40
2018-02-24T12:55:43.139Z,6.50
2018-02-24T12:58:10.646Z,6.50
2018-02-24T13:00:38.150Z,6.80
2018-02-24T13:03:05.706Z,7.00
2018-02-24T13:05:33.227Z,7.10
2018-02-24T13:08:00.741Z,7.20
2018-02-24T13:10:28.243Z,7.30
2018-02-24T13:12:55.769Z,7.20
2018-02-24T13:15:24.280Z,7.30
2018-02-24T13:17:51.814Z,7.40
2018-02-24T13:20:20.262Z,7.60
2018-02-24T13:22:48.534Z,7.40
2018-02-24T13:25:16.879Z,7.30
2018-02-24T13:27:45.355Z,7.30
2018-02-24T13:30:12.926Z,7.40
2018-02-24T13:32:40.418Z,7.40
2018-02-24T13:35:08.748Z,7.40
2018-02-24T13:37:36.276Z,7.40
2018-02-24T13:40:03.840Z,7.50
2018-02-24T13:42:31.332Z,7.70
2018-02-24T13:44:58.860Z,7.70
2018-02-24T13:47:26.378Z,7.50
2018-02-24T13:49:55.649Z,7.30
2018-02-24T13:52:23.174Z,7.30
2018-02-24T13:54:50.686Z,7.50
2018-02-24T13:57:18.975Z,7.70
2018-02-24T13:59:46.530Z,7.70
2018-02-24T14:02:14.815Z,7.90
2018-02-24T14:04:43.066Z,8.00
2018-02-24T14:07:10.598Z,8.00
2018-02-24T14:09:38.108Z,7.50
2018-02-24T14:12:06.906Z,7.70
2018-02-24T14:14:35.182Z,7.70
2018-02-24T14:17:03.444Z,7.80
2018-02-24T14:19:31.723Z,7.70
2018-02-24T14:21:59.983Z,7.50
2018-02-24T14:24:27.484Z,7.50
2018-02-24T14:26:54.987Z,7.50
2018-02-24T14:29:22.479Z,7.70
2018-02-24T14:31:50.038Z,7.60
2018-02-24T14:34:18.296Z,7.60
2018-02-24T14:36:45.812Z,7.50
2018-02-24T14:39:13.298Z,7.70
2018-02-24T14:41:40.806Z,7.40
2018-02-24T14:44:08.323Z,7.00
2018-02-24T14:46:35.830Z,6.60
2018-02-24T14:49:03.404Z,6.40
2018-02-24T14:51:30.919Z,6.30
2018-02-24T14:53:59.998Z,5.80
2018-02-24T14:56:27.507Z,5.80
2018-02-24T14:58:55.055Z,5.50
2018-02-24T15:01:23.302Z,5.40
2018-02-24T15:03:50.958Z,5.40
2018-02-24T15:06:18.522Z,5.20
2018-02-24T15:08:46.017Z,5.10
2018-02-24T15:11:13.535Z,5.10
2018-02-24T15:13:41.038Z,5.00
2018-02-24T15:16:08.542Z,4.80
2018-02-24T15:18:36.046Z,4.80
2018-02-24T15:21:04.307Z,5.00
2018-02-24T15:23:32.578Z,5.00
2018-02-24T15:26:01.862Z,4.90
2018-02-24T15:28:29.365Z,4.90
2018-02-24T15:30:56.873Z,4.80
2018-02-24T15:33:24.383Z,4.60
2018-02-24T15:35:51.896Z,4.70
2018-02-24T15:38:19.426Z,4.70
2018-02-24T15:40:46.918Z,4.60
2018-02-24T15:43:14.427Z,4.50
2018-02-24T15:45:41.938Z,4.40
2018-02-24T15:48:09.422Z,4.30
2018-02-24T15:50:37.690Z,4.00
2018-02-24T15:53:05.962Z,4.00
2018-02-24T15:55:33.510Z,3.90
2018-02-24T15:58:00.995Z,4.00
2018-02-24T16:00:29.266Z,3.80
2018-02-24T16:02:57.519Z,3.80
2018-02-24T16:05:25.099Z,3.80
2018-02-24T16:07:53.355Z,3.60
2018-02-24T16:10:20.972Z,3.60
2018-02-24T16:12:48.477Z,3.40
2018-02-24T16:15:15.983Z,3.50
2018-02-24T16:17:43.523Z,3.50
2018-02-24T16:20:11.787Z,3.50
2018-02-24T16:22:40.066Z,3.50
2018-02-24T16:25:08.334Z,3.40
2018-02-24T16:27:35.926Z,3.40
2018-02-24T16:30:03.438Z,3.30
2018-02-24T16:32:30.948Z,3.10
2018-02-24T16:34:58.451Z,3.00
2018-02-24T16:37:25.956Z,3.00
2018-02-24T16:39:54.233Z,2.80
2018-02-24T16:42:21.814Z,2.80
2018-02-24T16:44:49.309Z,2.80
2018-02-24T16:47:16.829Z,2.80
2018-02-24T16:49:44.371Z,2.70
2018-02-24T16:52:11.890Z,2.70
2018-02-24T16:54:39.490Z,2.70
2018-02-24T16:57:07.002Z,2.70
2018-02-24T16:59:34.528Z,2.60
2018-02-24T17:02:02.043Z,2.60
2018-02-24T17:04:30.363Z,2.50
2018-02-24T17:06:57.894Z,2.50
2018-02-24T17:09:26.183Z,2.50
2018-02-24T17:11:53.702Z,2.40
2018-02-24T17:14:22.743Z,2.30
2018-02-24T17:16:50.267Z,2.30
2018-02-24T17:19:19.465Z,2.20
2018-02-24T17:21:47.791Z,2.20
2018-02-24T17:24:15.283Z,2.20
2018-02-24T17:26:42.790Z,2.20
2018-02-24T17:29:10.303Z,2.10
2018-02-24T17:31:37.824Z,2.20
2018-02-24T17:34:05.335Z,2.10
2018-02-24T17:36:32.841Z,2.10
2018-02-24T17:39:00.338Z,2.10
2018-02-24T17:41:27.964Z,2.00
2018-02-24T17:43:55.471Z,1.90
2018-02-24T17:46:24.504Z,1.90
2018-02-24T17:48:52.014Z,1.90
2018-02-24T17:51:19.528Z,1.90
2018-02-24T17:53:47.042Z,1.80
2018-02-24T17:56:15.306Z,1.80
2018-02-24T17:58:42.838Z,1.80
2018-02-24T18:01:10.334Z,1.70
2018-02-24T18:03:37.844Z,1.70
2018-02-24T18:06:05.376Z,1.70
2018-02-24T18:08:33.643Z,1.70
2018-02-24T18:11:01.926Z,1.60
2018-02-24T18:13:30.227Z,1.60
2018-02-24T18:15:57.756Z,1.60
2018-02-24T18:18:27.034Z,1.50
2018-02-24T18:20:54.656Z,1.50
2018-02-24T18:23:22.151Z,1.50
2018-02-24T18:25:49.660Z,1.50
2018-02-24T18:28:17.183Z,1.50
2018-02-24T18:30:45.463Z,1.50
2018-02-24T18:33:14.467Z,1.50
2018-02-24T18:35:42.726Z,1.50
2018-02-24T18:38:10.242Z,1.50
2018-02-24T18:40:37.735Z,1.50
2018-02-24T18:43:05.243Z,1.50
2018-02-24T18:45:32.740Z,1.40
2018-02-24T18:48:00.246Z,1.40
2018-02-24T18:50:28.508Z,1.40
2018-02-24T18:52:56.806Z,1.40
2018-02-24T18:55:24.322Z,1.30
2018-02-24T18:57:51.835Z,1.40
2018-02-24T19:00:19.343Z,1.40
2018-02-24T19:02:46.878Z,1.30
2018-02-24T19:05:14.368Z,1.30
2018-02-24T19:07:41.857Z,1.30
2018-02-24T19:10:10.126Z,1.30
2018-02-24T19:12:38.379Z,1.30
2018-02-24T19:15:05.888Z,1.30
2018-02-24T19:17:33.394Z,1.30
2018-02-24T19:20:00.919Z,1.20
2018-02-24T19:22:28.438Z,1.20
2018-02-24T19:24:56.710Z,1.20
2018-02-24T19:27:25.024Z,1.20
2018-02-24T19:29:52.530Z,1.10
2018-02-24T19:32:20.804Z,1.10
2018-02-24T19:34:48.325Z,1.10
2018-02-24T19:37:16.840Z,1.10
2018-02-24T19:39:44.343Z,1.10
2018-02-24T19:42:11.870Z,1.10
2018-02-24T19:44:41.054Z,1.10
2018-02-24T19:47:08.559Z,1.10
2018-02-24T19:49:36.098Z,1.10
2018-02-24T19:52:04.378Z,1.10
2018-02-24T19:54:32.627Z,1.10
2018-02-24T19:57:00.134Z,1.10
2018-02-24T19:59:27.644Z,1.00
2018-02-24T20:01:55.159Z,1.00
2018-02-24T20:04:22.654Z,1.00
2018-02-24T20:06:50.166Z,0.90
2018-02-24T20:09:17.670Z,0.90
2018-02-24T20:11:45.212Z,0.90
2018-02-24T20:14:12.728Z,0.90
2018-02-24T20:16:40.996Z,0.80
2018-02-24T20:19:09.285Z,0.80
2018-02-24T20:21:37.550Z,0.80
2018-02-24T20:24:05.867Z,0.80
2018-02-24T20:26:33.358Z,0.80
2018-02-24T20:29:00.878Z,0.80
2018-02-24T20:31:28.375Z,0.80
2018-02-24T20:33:55.929Z,0.80
2018-02-24T20:36:24.243Z,0.70
2018-02-24T20:38:52.523Z,0.70
2018-02-24T20:41:20.802Z,0.70
2018-02-24T20:43:49.081Z,0.70
2018-02-24T20:46:17.350Z,0.70
2018-02-24T20:48:45.617Z,0.60
2018-02-24T20:51:13.889Z,0.60
2018-02-24T20:53:41.395Z,0.60
2018-02-24T20:56:08.898Z,0.60
2018-02-24T20:58:36.402Z,0.60
2018-02-24T21:01:03.928Z,0.60
2018-02-24T21:03:32.206Z,0.60
2018-02-24T21:06:00.503Z,0.50
2018-02-24T21:08:28.766Z,0.50
2018-02-24T21:10:57.138Z,0.50
2018-02-24T21:13:24.646Z,0.40
2018-02-24T21:15:52.140Z,0.50
2018-02-24T21:18:20.458Z,0.40
2018-02-24T21:20:48.027Z,0.40
2018-02-24T21:23:15.546Z,0.40
2018-02-24T21:25:43.039Z,0.30
2018-02-24T21:28:10.568Z,0.30
2018-02-24T21:30:38.055Z,0.30
2018-02-24T21:33:05.566Z,0.20
2018-02-24T21:35:33.079Z,0.20
2018-02-24T21:38:00.590Z,0.20
2018-02-24T21:40:28.100Z,0.20
2018-02-24T21:42:55.618Z,0.20
2018-02-24T21:45:23.130Z,0.20
2018-02-24T21:47:50.638Z,0.20
2018-02-24T21:50:18.151Z,0.10
2018-02-24T21:52:46.663Z,0.10
2018-02-24T21:55:14.187Z,0.10
2018-02-24T21:57:41.677Z,0.10
2018-02-24T22:00:09.249Z,0.10
2018-02-24T22:02:36.727Z,0.00
2018-02-24T22:05:05.026Z,0.00
2018-02-24T22:07:32.552Z,0.00
2018-02-24T22:10:00.242Z,0.00
2018-02-24T22:12:27.766Z,0.00
2018-02-24T22:14:55.254Z,0.00
2018-02-24T22:17:23.539Z,-0.10
2018-02-24T22:19:51.054Z,-0.10
2018-02-24T22:22:18.592Z,-0.10
2018-02-24T22:24:46.143Z,-0.10
2018-02-24T22:27:13.668Z,-0.10
2018-02-24T22:29:41.933Z,-0.10
2018-02-24T22:34:17.106Z,-0.10
2018-02-24T22:36:44.622Z,-0.10
2018-02-24T22:39:12.137Z,-0.20
2018-02-24T22:41:39.663Z,-0.20
2018-02-24T22:44:07.939Z,-0.20
2018-02-24T22:46:36.202Z,-0.20
2018-02-24T22:49:03.727Z,-0.30
2018-02-24T22:51:31.222Z,-0.20
2018-02-24T22:53:58.734Z,-0.20
2018-02-24T22:56:26.230Z,-0.20
2018-02-24T22:58:55.258Z,-0.20
2018-02-24T23:01:22.779Z,-0.20
2018-02-24T23:03:50.286Z,-0.30
2018-02-24T23:06:17.813Z,-0.30
2018-02-24T23:08:45.300Z,-0.30
2018-02-24T23:11:12.826Z,-0.30
2018-02-24T23:13:40.322Z,-0.30
2018-02-24T23:16:07.837Z,-0.30
2018-02-24T23:18:35.351Z,-0.30
2018-02-24T23:21:02.854Z,-0.40
2018-02-24T23:23:30.388Z,-0.50
2018-02-24T23:25:57.882Z,-0.50
2018-02-24T23:28:25.430Z,-0.50
2018-02-24T23:30:52.986Z,-0.50
2018-02-24T23:33:20.505Z,-0.50
2018-02-24T23:35:48.018Z,-0.60
2018-02-24T23:38:15.518Z,-0.60
2018-02-24T23:40:43.035Z,-0.60
2018-02-24T23:43:10.540Z,-0.70
2018-02-24T23:45:38.081Z,-0.60
2018-02-24T23:48:05.608Z,-0.70
2018-02-24T23:50:33.110Z,-0.70
2018-02-24T23:53:00.631Z,-0.70
2018-02-24T23:55:28.131Z,-0.70
2018-02-24T23:57:55.649Z,-0.70
